UUYY

Syktyvkar Airport

Airport
ICAO code
UUYY
IATA Code
SCW
Summary
ICAO Region
EUR
ICAO Territory
Location

Syktyvkar, Komi Republic,

Serving
Syktyvkar
Elevation
328 ft
Coordinates
61° 38' 30" N , 50° 50' 18" E
Metar
UUYY 241230Z 20005MPS 9999 OVC013 M03/M05 Q1027 R18/420349 NOSIG RMK QFE762/1016

Description

Syktyvkar Airport is an airport in the Komi Republic, Russia located just within the City.

Climatology

Runways

Designator Length Width Surface Rops
1/19 2500 50 ASP Yes/Yes

Airport map

Aerial View

SKYbrary Partners:

Safety knowledge contributed by: